createdAt,value
2023-02-18T00:01:43.426Z,100.00
2023-02-18T00:06:36.769Z,100.00
2023-02-18T00:11:30.697Z,100.00
2023-02-18T00:16:23.206Z,100.00
2023-02-18T00:21:15.328Z,100.00
2023-02-18T00:26:13.894Z,100.00
2023-02-18T00:31:19.841Z,100.00
2023-02-18T00:36:14.220Z,100.00
2023-02-18T00:41:06.846Z,100.00
2023-02-18T00:45:58.685Z,100.00
2023-02-18T00:50:50.418Z,100.00
2023-02-18T00:55:48.069Z,100.00
2023-02-18T01:00:39.779Z,100.00
2023-02-18T01:05:31.658Z,100.00
2023-02-18T01:10:23.303Z,100.00
2023-02-18T01:15:16.968Z,100.00
2023-02-18T01:20:09.878Z,100.00
2023-02-18T01:25:01.622Z,98.63
2023-02-18T01:29:53.727Z,99.22
2023-02-18T01:34:46.674Z,98.80
2023-02-18T01:39:38.428Z,97.66
2023-02-18T01:44:30.398Z,97.23
2023-02-18T01:49:35.724Z,96.78
2023-02-18T01:54:28.917Z,96.76
2023-02-18T01:59:33.740Z,96.13
2023-02-18T02:04:26.372Z,95.49
2023-02-18T02:09:20.093Z,95.72
2023-02-18T02:14:11.955Z,94.75
2023-02-18T02:19:19.724Z,94.83
2023-02-18T02:24:33.204Z,94.60
2023-02-18T02:30:07.746Z,94.21
2023-02-18T02:35:05.368Z,93.66
2023-02-18T02:40:06.924Z,93.91
2023-02-18T02:45:39.852Z,93.51
2023-02-18T02:50:37.369Z,93.30
2023-02-18T02:55:29.160Z,93.41
2023-02-18T03:00:49.995Z,93.75
2023-02-18T03:06:11.025Z,94.92
2023-02-18T03:11:08.355Z,96.37
2023-02-18T03:16:33.003Z,97.90
2023-02-18T03:21:44.819Z,98.41
2023-02-18T03:26:42.846Z,98.52
2023-02-18T03:31:38.554Z,98.80
2023-02-18T03:36:33.075Z,99.50
2023-02-18T03:41:24.983Z,100.00
2023-02-18T03:46:17.028Z,100.00
2023-02-18T03:51:08.921Z,100.00
2023-02-18T03:56:00.596Z,100.00
2023-02-18T04:00:52.571Z,100.00
2023-02-18T04:05:44.338Z,100.00
2023-02-18T04:10:36.069Z,100.00
2023-02-18T04:15:28.098Z,100.00
2023-02-18T04:20:19.998Z,100.00
2023-02-18T04:25:11.648Z,100.00
2023-02-18T04:30:05.649Z,100.00
2023-02-18T04:34:57.431Z,100.00
2023-02-18T04:39:49.114Z,100.00
2023-02-18T04:44:41.012Z,100.00
2023-02-18T04:49:33.382Z,100.00
2023-02-18T04:54:25.330Z,100.00
2023-02-18T04:59:17.574Z,100.00
2023-02-18T05:04:09.446Z,100.00
2023-02-18T05:09:01.169Z,100.00
2023-02-18T05:13:52.899Z,100.00
2023-02-18T05:18:44.530Z,100.00
2023-02-18T05:23:36.263Z,100.00
2023-02-18T05:28:28.206Z,100.00
2023-02-18T05:33:19.938Z,100.00
2023-02-18T05:38:11.675Z,100.00
2023-02-18T05:43:03.531Z,100.00
2023-02-18T05:47:55.323Z,100.00
2023-02-18T05:52:47.357Z,100.00
2023-02-18T05:57:39.037Z,100.00
2023-02-18T06:02:30.774Z,100.00
2023-02-18T06:07:22.545Z,100.00
2023-02-18T06:12:14.238Z,100.00
2023-02-18T06:17:05.935Z,100.00
2023-02-18T06:21:57.698Z,100.00
2023-02-18T06:26:49.445Z,100.00
2023-02-18T06:31:41.186Z,100.00
2023-02-18T06:36:32.983Z,100.00
2023-02-18T06:41:25.413Z,100.00
2023-02-18T06:46:17.336Z,100.00
2023-02-18T06:51:09.167Z,100.00
2023-02-18T06:56:02.013Z,100.00
2023-02-18T07:00:53.755Z,100.00
2023-02-18T07:05:45.440Z,100.00
2023-02-18T07:10:37.296Z,100.00
2023-02-18T07:15:29.190Z,100.00
2023-02-18T07:20:21.966Z,100.00
2023-02-18T07:25:13.685Z,100.00
2023-02-18T07:30:06.538Z,100.00
2023-02-18T07:34:58.258Z,100.00
2023-02-18T07:39:49.902Z,100.00
2023-02-18T07:44:42.158Z,100.00
2023-02-18T07:49:34.774Z,100.00
2023-02-18T07:54:26.600Z,100.00
2023-02-18T07:59:18.343Z,100.00
2023-02-18T08:04:10.424Z,100.00
2023-02-18T08:09:02.243Z,100.00
2023-02-18T08:13:54.068Z,100.00
2023-02-18T08:18:48.004Z,100.00
2023-02-18T08:23:40.204Z,100.00
2023-02-18T08:28:31.940Z,100.00
2023-02-18T08:33:24.123Z,100.00
2023-02-18T08:38:15.918Z,100.00
2023-02-18T08:43:07.687Z,100.00
2023-02-18T08:48:16.350Z,100.00
2023-02-18T08:53:10.775Z,100.00
2023-02-18T08:58:05.122Z,100.00
2023-02-18T09:02:57.395Z,100.00
2023-02-18T09:07:49.185Z,100.00
2023-02-18T09:12:40.894Z,100.00
2023-02-18T09:17:33.434Z,100.00
2023-02-18T09:22:25.404Z,100.00
2023-02-18T09:27:17.040Z,100.00
2023-02-18T09:32:09.458Z,100.00
2023-02-18T09:37:01.285Z,100.00
2023-02-18T09:42:05.983Z,100.00
2023-02-18T09:47:03.622Z,97.83
2023-02-18T09:51:57.486Z,95.78
2023-02-18T09:56:50.818Z,88.00
2023-02-18T10:01:44.673Z,85.75
2023-02-18T10:06:36.761Z,86.62
2023-02-18T10:11:35.452Z,81.25
2023-02-18T10:16:27.664Z,82.57
2023-02-18T10:21:30.629Z,82.27
2023-02-18T10:26:22.358Z,77.86
2023-02-18T10:31:32.664Z,74.90
2023-02-18T10:36:26.149Z,76.16
2023-02-18T10:41:35.062Z,73.59
2023-02-18T10:46:48.258Z,72.20
2023-02-18T10:51:47.877Z,71.44
2023-02-18T10:56:48.683Z,71.41
2023-02-18T11:01:42.662Z,71.36
2023-02-18T11:06:45.255Z,71.44
2023-02-18T11:11:40.553Z,69.14
2023-02-18T11:16:53.729Z,69.86
2023-02-18T11:21:45.408Z,65.35
2023-02-18T11:26:40.023Z,65.24
2023-02-18T11:31:42.122Z,66.68
2023-02-18T11:36:36.393Z,66.81
2023-02-18T11:41:38.216Z,67.85
2023-02-18T11:46:30.102Z,68.89
2023-02-18T11:51:36.726Z,70.85
2023-02-18T11:56:34.869Z,70.12
2023-02-18T12:01:46.808Z,70.76
2023-02-18T12:06:53.777Z,71.05
2023-02-18T12:11:50.311Z,71.20
2023-02-18T12:16:42.021Z,71.75
2023-02-18T12:21:45.118Z,73.02
2023-02-18T12:26:49.156Z,72.75
2023-02-18T12:31:59.870Z,72.09
2023-02-18T12:37:15.991Z,73.09
2023-02-18T12:42:07.664Z,73.58
2023-02-18T12:47:22.447Z,73.22
2023-02-18T12:52:40.254Z,72.63
2023-02-18T12:57:47.781Z,73.15
2023-02-18T13:03:17.229Z,72.37
2023-02-18T13:08:17.793Z,72.32
2023-02-18T13:13:12.640Z,72.64
2023-02-18T13:18:11.671Z,72.41
2023-02-18T13:23:04.574Z,71.49
2023-02-18T13:27:56.475Z,72.55
2023-02-18T13:33:19.641Z,71.90
2023-02-18T13:38:34.878Z,72.52
2023-02-18T13:43:36.791Z,72.42
2023-02-18T13:48:29.924Z,71.74
2023-02-18T13:53:24.766Z,72.23
2023-02-18T13:58:20.933Z,72.27
2023-02-18T14:03:31.218Z,72.75
2023-02-18T14:08:39.261Z,73.67
2023-02-18T14:14:13.612Z,73.80
2023-02-18T14:19:29.309Z,75.44
2023-02-18T14:24:47.559Z,76.19
2023-02-18T14:29:39.677Z,76.00
2023-02-18T14:34:51.024Z,76.18
2023-02-18T14:39:48.523Z,75.90
2023-02-18T14:44:58.782Z,73.64
2023-02-18T14:49:59.881Z,72.55
2023-02-18T14:54:51.767Z,72.99
2023-02-18T14:59:44.978Z,72.06
2023-02-18T15:04:37.420Z,72.74
2023-02-18T15:09:29.231Z,73.04
2023-02-18T15:14:27.625Z,73.62
2023-02-18T15:19:22.930Z,74.68
2023-02-18T15:24:32.179Z,75.74
2023-02-18T15:29:29.282Z,76.36
2023-02-18T15:34:23.927Z,76.63
2023-02-18T15:39:15.834Z,77.08
2023-02-18T15:44:08.500Z,76.65
2023-02-18T15:49:01.388Z,76.63
2023-02-18T15:53:58.223Z,75.36
2023-02-18T15:58:49.906Z,75.21
2023-02-18T16:03:41.697Z,74.06
2023-02-18T16:08:33.431Z,74.13
2023-02-18T16:13:26.896Z,74.56
2023-02-18T16:18:25.439Z,74.74
2023-02-18T16:23:17.102Z,76.47
2023-02-18T16:28:28.049Z,77.03
2023-02-18T16:33:19.775Z,77.28
2023-02-18T16:38:17.868Z,78.02
2023-02-18T16:43:17.501Z,77.79
2023-02-18T16:48:24.554Z,78.15
2023-02-18T16:53:16.587Z,78.72
2023-02-18T16:58:08.480Z,79.15
2023-02-18T17:03:01.121Z,79.64
2023-02-18T17:07:52.904Z,79.91
2023-02-18T17:12:44.674Z,81.08
2023-02-18T17:17:36.526Z,81.28
2023-02-18T17:22:28.334Z,81.65
2023-02-18T17:27:20.071Z,81.68
2023-02-18T17:32:13.371Z,82.11
2023-02-18T17:37:05.178Z,82.26
2023-02-18T17:41:57.106Z,82.26
2023-02-18T17:46:52.566Z,82.22
2023-02-18T17:51:44.938Z,83.02
2023-02-18T17:56:36.792Z,84.97
2023-02-18T18:01:28.507Z,86.93
2023-02-18T18:06:21.190Z,88.31
2023-02-18T18:11:19.302Z,88.50
2023-02-18T18:16:13.368Z,89.11
2023-02-18T18:21:05.560Z,89.74
2023-02-18T18:25:59.147Z,90.01
2023-02-18T18:30:53.029Z,89.91
2023-02-18T18:35:47.635Z,90.19
2023-02-18T18:40:40.137Z,89.45
2023-02-18T18:45:39.531Z,89.07
2023-02-18T18:50:31.270Z,89.27
2023-02-18T18:55:32.832Z,89.02
2023-02-18T19:00:33.021Z,89.21
2023-02-18T19:05:35.451Z,89.64
2023-02-18T19:10:30.317Z,90.62
2023-02-18T19:15:23.424Z,89.74
2023-02-18T19:20:17.967Z,90.77
2023-02-18T19:25:10.018Z,90.53
2023-02-18T19:30:01.772Z,90.45
2023-02-18T19:34:53.614Z,90.80
2023-02-18T19:39:45.313Z,90.23
2023-02-18T19:44:36.996Z,90.77
2023-02-18T19:49:28.674Z,90.18
2023-02-18T19:54:20.348Z,90.39
2023-02-18T19:59:12.208Z,90.21
2023-02-18T20:04:03.937Z,90.35
2023-02-18T20:08:56.074Z,89.49
2023-02-18T20:13:48.567Z,89.20
2023-02-18T20:18:40.458Z,87.90
2023-02-18T20:23:32.186Z,88.21
2023-02-18T20:28:23.992Z,87.28
2023-02-18T20:33:15.812Z,86.50
2023-02-18T20:38:07.566Z,85.94
2023-02-18T20:42:59.253Z,85.63
2023-02-18T20:47:51.113Z,85.49
2023-02-18T20:52:42.879Z,85.32
2023-02-18T20:57:34.600Z,84.48
2023-02-18T21:02:26.303Z,84.41
2023-02-18T21:07:18.095Z,83.95
2023-02-18T21:12:09.907Z,83.72
2023-02-18T21:17:07.861Z,82.83
2023-02-18T21:22:00.650Z,82.02
2023-02-18T21:26:53.889Z,82.27
2023-02-18T21:31:45.743Z,82.54
2023-02-18T21:36:37.651Z,82.55
2023-02-18T21:41:30.564Z,81.65
2023-02-18T21:46:28.165Z,81.47
2023-02-18T21:51:40.264Z,81.22
2023-02-18T21:56:32.104Z,80.88
2023-02-18T22:01:23.878Z,81.16
2023-02-18T22:06:15.579Z,81.42
2023-02-18T22:11:07.751Z,81.10
2023-02-18T22:15:59.587Z,81.64
2023-02-18T22:20:51.309Z,81.81
2023-02-18T22:25:43.025Z,82.26
2023-02-18T22:30:34.813Z,82.33
2023-02-18T22:35:26.613Z,82.04
2023-02-18T22:40:18.649Z,82.34
2023-02-18T22:45:11.811Z,82.37
2023-02-18T22:50:05.363Z,83.81
2023-02-18T22:54:58.219Z,84.67
2023-02-18T22:59:50.168Z,84.99
2023-02-18T23:04:42.596Z,86.14
2023-02-18T23:09:34.372Z,86.00
2023-02-18T23:14:28.431Z,85.80
2023-02-18T23:19:20.260Z,86.30
2023-02-18T23:24:11.997Z,86.08
2023-02-18T23:29:06.064Z,87.78
2023-02-18T23:34:00.814Z,88.25
2023-02-18T23:39:00.927Z,89.22
2023-02-18T23:43:53.147Z,90.01
2023-02-18T23:48:45.003Z,90.42
2023-02-18T23:53:38.026Z,90.72
2023-02-18T23:58:31.116Z,91.24
